createdAt,value
2018-08-06T04:46:42.540Z,15.30
2018-08-06T04:50:45.884Z,15.20
2018-08-06T04:54:49.235Z,15.20
2018-08-06T04:58:53.201Z,15.20
2018-08-06T05:02:56.538Z,15.30
2018-08-06T05:06:59.951Z,15.30
2018-08-06T05:11:03.323Z,15.30
2018-08-06T05:15:06.731Z,15.30
2018-08-06T05:19:10.033Z,15.40
2018-08-06T05:23:13.392Z,15.40
2018-08-06T05:27:16.735Z,15.50
2018-08-06T05:31:28.350Z,15.60
2018-08-06T05:35:31.695Z,15.60
2018-08-06T05:39:35.023Z,15.70
2018-08-06T05:43:38.984Z,15.80
2018-08-06T05:47:42.336Z,15.90
2018-08-06T05:51:50.007Z,16.00
2018-08-06T05:55:53.344Z,16.10
2018-08-06T05:59:56.686Z,16.20
2018-08-06T06:04:00.412Z,16.30
2018-08-06T06:08:03.788Z,16.40
2018-08-06T06:12:07.200Z,16.60
2018-08-06T06:16:10.558Z,16.70
2018-08-06T06:20:14.333Z,16.90
2018-08-06T06:24:17.687Z,17.00
2018-08-06T06:28:21.175Z,17.20
2018-08-06T06:32:24.522Z,17.30
2018-08-06T06:36:28.120Z,17.40
2018-08-06T06:40:32.336Z,17.60
2018-08-06T06:44:36.293Z,17.70
2018-08-06T06:48:39.696Z,17.90
2018-08-06T06:52:43.032Z,18.00
2018-08-06T06:56:46.786Z,18.20
2018-08-06T07:00:50.135Z,18.30
2018-08-06T07:04:53.969Z,18.50
2018-08-06T07:08:57.343Z,18.70
2018-08-06T07:13:02.304Z,18.80
2018-08-06T07:17:05.691Z,19.00
2018-08-06T07:21:09.054Z,19.20
2018-08-06T07:25:12.768Z,19.40
2018-08-06T07:29:16.107Z,19.60
2018-08-06T07:33:19.450Z,19.80
2018-08-06T07:37:23.353Z,19.90
2018-08-06T07:41:28.091Z,20.10
2018-08-06T07:45:32.258Z,20.30
2018-08-06T07:49:35.727Z,20.50
2018-08-06T07:53:39.006Z,20.70
2018-08-06T07:57:42.370Z,20.80
2018-08-06T08:01:45.721Z,21.00
2018-08-06T08:05:49.086Z,21.20
2018-08-06T08:09:52.479Z,21.40
2018-08-06T08:13:56.139Z,21.70
2018-08-06T08:17:59.485Z,21.80
2018-08-06T08:22:02.846Z,22.10
2018-08-06T08:26:06.224Z,22.20
2018-08-06T08:30:11.353Z,22.50
2018-08-06T08:34:14.743Z,22.70
2018-08-06T08:38:18.602Z,22.90
2018-08-06T08:42:28.759Z,23.10
2018-08-06T08:46:32.370Z,23.30
2018-08-06T08:50:35.773Z,23.50
2018-08-06T08:54:39.111Z,23.70
2018-08-06T08:58:42.545Z,24.00
2018-08-06T09:02:46.935Z,24.20
2018-08-06T09:06:50.242Z,24.40
2018-08-06T09:10:54.623Z,24.70
2018-08-06T09:14:57.951Z,24.90
2018-08-06T09:19:01.329Z,25.10
2018-08-06T09:23:04.673Z,25.30
2018-08-06T09:27:07.996Z,25.60
2018-08-06T09:31:11.329Z,25.80
2018-08-06T09:35:15.201Z,26.00
2018-08-06T09:39:19.166Z,26.30
2018-08-06T09:43:22.598Z,26.50
2018-08-06T09:47:25.956Z,26.80
2018-08-06T09:51:29.338Z,27.00
2018-08-06T09:55:32.720Z,27.20
2018-08-06T09:59:36.089Z,27.50
2018-08-06T10:03:40.291Z,27.70
2018-08-06T10:07:45.373Z,27.90
2018-08-06T10:11:48.850Z,28.10
2018-08-06T10:15:52.167Z,28.30
2018-08-06T10:19:55.520Z,28.50
2018-08-06T10:23:59.171Z,28.70
2018-08-06T10:28:02.664Z,28.80
2018-08-06T10:32:06.037Z,29.00
2018-08-06T10:36:09.806Z,29.00
2018-08-06T10:40:17.372Z,29.20
2018-08-06T10:44:21.496Z,29.40
2018-08-06T10:48:24.991Z,29.50
2018-08-06T10:52:28.309Z,29.80
2018-08-06T10:56:31.652Z,30.00
2018-08-06T11:00:35.038Z,30.20
2018-08-06T11:04:38.429Z,30.40
2018-08-06T11:08:41.798Z,30.60
2018-08-06T11:12:45.155Z,30.80
2018-08-06T11:16:48.503Z,30.90
2018-08-06T11:20:51.871Z,31.00
2018-08-06T11:24:55.215Z,31.10
2018-08-06T11:28:58.566Z,31.20
2018-08-06T11:37:05.028Z,31.40
2018-08-06T11:41:08.395Z,31.50
2018-08-06T11:45:13.895Z,31.70
2018-08-06T11:49:17.248Z,31.70
2018-08-06T11:53:20.584Z,31.90
2018-08-06T11:57:24.149Z,32.10
2018-08-06T12:01:27.540Z,32.20
2018-08-06T12:05:30.874Z,32.40
2018-08-06T12:09:34.204Z,32.50
2018-08-06T12:13:37.594Z,32.60
2018-08-06T12:17:41.548Z,32.70
2018-08-06T12:21:44.895Z,32.90
2018-08-06T12:25:48.602Z,32.90
2018-08-06T12:29:51.942Z,33.00
2018-08-06T12:33:55.334Z,33.10
2018-08-06T12:37:58.670Z,33.20
2018-08-06T12:42:02.132Z,33.30
2018-08-06T12:46:05.933Z,33.50
2018-08-06T12:50:10.544Z,33.60
2018-08-06T12:54:13.878Z,33.70
2018-08-06T12:58:17.220Z,33.80
2018-08-06T13:02:20.721Z,33.90
2018-08-06T13:06:24.166Z,34.10
2018-08-06T13:10:27.535Z,34.10
2018-08-06T13:14:30.882Z,34.20
2018-08-06T13:18:34.262Z,34.20
2018-08-06T13:22:37.618Z,34.30
2018-08-06T13:26:41.015Z,34.30
2018-08-06T13:30:44.334Z,34.50
2018-08-06T13:34:47.692Z,34.50
2018-08-06T13:38:51.094Z,34.50
2018-08-06T13:42:54.410Z,34.60
2018-08-06T13:46:57.899Z,34.70
2018-08-06T13:51:01.132Z,34.70
2018-08-06T13:55:04.718Z,34.70
2018-08-06T13:59:08.168Z,34.70
2018-08-06T14:03:11.487Z,34.70
2018-08-06T14:07:14.829Z,34.70
2018-08-06T14:11:18.243Z,34.60
2018-08-06T14:15:21.627Z,34.60
2018-08-06T14:19:24.966Z,34.50
2018-08-06T14:23:28.312Z,34.60
2018-08-06T14:27:34.656Z,34.60
2018-08-06T14:31:38.030Z,34.60
2018-08-06T14:35:42.275Z,34.70
2018-08-06T14:39:45.732Z,34.70
2018-08-06T14:43:49.115Z,34.80
2018-08-06T14:47:52.472Z,34.80
2018-08-06T14:51:57.043Z,34.80
2018-08-06T14:56:00.481Z,34.80
2018-08-06T15:00:07.775Z,34.80
2018-08-06T15:04:12.283Z,34.80
2018-08-06T15:08:15.940Z,34.70
2018-08-06T15:12:19.396Z,34.70
2018-08-06T15:16:23.207Z,34.70
2018-08-06T15:20:26.711Z,34.80
2018-08-06T15:24:30.080Z,34.80
2018-08-06T15:28:33.638Z,34.90
2018-08-06T15:32:37.135Z,34.90
2018-08-06T15:36:40.639Z,35.00
2018-08-06T15:40:44.370Z,35.10
2018-08-06T15:44:48.399Z,35.20
2018-08-06T15:48:51.872Z,35.40
2018-08-06T15:52:55.275Z,35.80
2018-08-06T15:56:58.992Z,36.10
2018-08-06T16:01:02.742Z,36.50
2018-08-06T16:05:07.032Z,36.80
2018-08-06T16:09:10.444Z,37.10
2018-08-06T16:13:13.929Z,37.30
2018-08-06T16:17:17.549Z,37.60
2018-08-06T16:21:21.097Z,37.80
2018-08-06T16:25:24.815Z,38.00
2018-08-06T16:29:28.244Z,38.20
2018-08-06T16:33:31.615Z,38.30
2018-08-06T16:37:34.981Z,38.30
2018-08-06T16:41:38.643Z,38.40
2018-08-06T16:45:42.047Z,38.30
2018-08-06T16:49:45.691Z,38.30
2018-08-06T16:53:49.172Z,38.10
2018-08-06T16:57:52.818Z,38.00
2018-08-06T17:01:56.253Z,37.80
2018-08-06T17:05:59.750Z,37.60
2018-08-06T17:10:03.352Z,37.30
2018-08-06T17:14:07.063Z,37.10
2018-08-06T17:18:10.583Z,36.80
2018-08-06T17:22:14.011Z,36.50
2018-08-06T17:26:17.436Z,36.20
2018-08-06T17:30:20.947Z,35.80
2018-08-06T17:34:25.255Z,35.50
2018-08-06T17:38:28.835Z,35.30
2018-08-06T17:42:32.232Z,35.00
2018-08-06T17:46:35.775Z,34.80
2018-08-06T17:50:39.660Z,34.50
2018-08-06T17:54:43.095Z,34.40
2018-08-06T17:58:46.605Z,34.10
2018-08-06T18:02:50.123Z,33.90
2018-08-06T18:06:53.458Z,33.70
2018-08-06T18:10:56.835Z,33.50
2018-08-06T18:15:01.562Z,33.30
2018-08-06T18:23:08.065Z,33.00
2018-08-06T18:27:11.443Z,32.80
2018-08-06T18:31:14.892Z,32.60
2018-08-06T18:35:19.337Z,32.30
2018-08-06T18:39:22.699Z,32.10
2018-08-06T18:43:26.097Z,31.90
2018-08-06T18:47:29.997Z,31.70
2018-08-06T18:51:33.859Z,31.50
2018-08-06T18:55:37.376Z,31.30
2018-08-06T18:59:40.764Z,31.00
2018-08-06T19:03:44.135Z,30.90
2018-08-06T19:07:47.567Z,30.70
2018-08-06T19:11:50.945Z,30.50
2018-08-06T19:15:54.316Z,30.20
2018-08-06T19:19:57.696Z,30.00
2018-08-06T19:24:06.440Z,29.80
2018-08-06T19:28:09.815Z,29.60
2018-08-06T19:32:13.176Z,29.40
2018-08-06T19:36:16.527Z,29.20
2018-08-06T19:40:19.891Z,28.90
2018-08-06T19:44:23.239Z,28.70
2018-08-06T19:48:26.599Z,28.50
2018-08-06T19:52:30.036Z,28.30
2018-08-06T19:56:34.428Z,28.10
2018-08-06T20:00:38.180Z,27.90
2018-08-06T20:04:41.631Z,27.70
2018-08-06T20:08:45.052Z,27.50
2018-08-06T20:12:48.410Z,27.40
2018-08-06T20:16:51.870Z,27.20
2018-08-06T20:20:55.366Z,27.00
2018-08-06T20:24:58.735Z,26.80
2018-08-06T20:29:02.564Z,26.60
2018-08-06T20:33:06.455Z,26.50
2018-08-06T20:37:09.839Z,26.30
2018-08-06T20:41:13.204Z,26.20
2018-08-06T20:45:21.097Z,26.10
2018-08-06T20:49:24.430Z,26.00
2018-08-06T20:53:27.771Z,25.80
2018-08-06T20:57:31.169Z,25.70
2018-08-06T21:01:34.627Z,25.60
2018-08-06T21:05:38.031Z,25.50
2018-08-06T21:09:41.430Z,25.40
2018-08-06T21:13:44.792Z,25.30
2018-08-06T21:17:48.272Z,25.20
2018-08-06T21:21:51.784Z,25.10
2018-08-06T21:25:55.110Z,25.00
2018-08-06T21:29:58.458Z,24.90
2018-08-06T21:34:01.879Z,24.80
2018-08-06T21:38:05.278Z,24.70
2018-08-06T21:42:08.668Z,24.60
2018-08-06T21:46:12.031Z,24.50
2018-08-06T21:50:15.766Z,24.30
2018-08-06T21:54:19.577Z,24.20
2018-08-06T21:58:24.917Z,24.10
2018-08-06T22:02:28.501Z,24.00
2018-08-06T22:06:31.838Z,23.90
2018-08-06T22:10:35.232Z,23.80
2018-08-06T22:14:38.744Z,23.70
2018-08-06T22:18:42.246Z,23.60
2018-08-06T22:22:45.683Z,23.50
2018-08-06T22:26:49.011Z,23.50
2018-08-06T22:30:52.362Z,23.40
2018-08-06T22:34:55.861Z,23.30
2018-08-06T22:38:59.205Z,23.20
2018-08-06T22:43:02.542Z,23.10
2018-08-06T22:47:06.366Z,23.10
2018-08-06T22:51:09.805Z,23.00
2018-08-06T22:55:13.673Z,22.90
2018-08-06T22:59:17.070Z,22.90
2018-08-06T23:03:20.763Z,22.80
2018-08-06T23:07:24.103Z,22.80
2018-08-06T23:11:27.559Z,22.70
2018-08-06T23:15:30.891Z,22.60
2018-08-06T23:23:37.531Z,22.50
2018-08-06T23:27:40.862Z,22.40
2018-08-06T23:31:44.380Z,22.30
2018-08-06T23:35:47.740Z,22.20
2018-08-06T23:39:51.686Z,22.10
2018-08-06T23:43:55.308Z,22.00
2018-08-06T23:47:58.655Z,22.00
2018-08-06T23:52:02.001Z,21.90
2018-08-06T23:56:05.477Z,21.80
